Time;durP1;ratioP1;P1;durP2;ratioP2;P2;SDS_P1;SDS_P2;PMS_P1;PMS_P2;Temp;Humidity;BMP_temperature;BMP_pressure;BME280_temperature;BME280_humidity;BME280_pressure;Samples;Min_cycle;Max_cycle;Signal;HPM_P1;HPM_P2
2024/03/12 00:00:47;;;;;;;0.90;0.70;;;;;;;;;;5064868;28;20020;-79
2024/03/12 00:03:13;;;;;;;0.85;0.60;;;;;;;;;;5078306;28;20021;-78
2024/03/12 00:05:40;;;;;;;0.40;0.40;;;;;;;;;;5078349;28;20499;-79
2024/03/12 00:08:07;;;;;;;0.70;0.70;;;;;;;;;;5070438;28;20021;-80
2024/03/12 00:10:33;;;;;;;0.65;0.60;;;;;;;;;;5078062;28;20535;-79
2024/03/12 00:13:01;;;;;;;0.57;0.57;;;;;;;;;;5079237;28;20025;-80
2024/03/12 00:15:28;;;;;;;1.98;0.90;;;;;;;;;;5063955;28;20028;-79
2024/03/12 00:17:55;;;;;;;0.52;0.52;;;;;;;;;;5071866;28;20020;-78
2024/03/12 00:20:29;;;;;;;0.60;0.60;;;;;;;;;;5061535;28;20052;-79
2024/03/12 00:22:56;;;;;;;0.52;0.52;;;;;;;;;;5057000;28;20536;-80
2024/03/12 00:25:22;;;;;;;0.55;0.50;;;;;;;;;;5072845;28;20093;-80
2024/03/12 00:27:48;;;;;;;0.60;0.60;;;;;;;;;;5080321;28;20112;-80
2024/03/12 00:30:15;;;;;;;1.23;0.82;;;;;;;;;;5065980;28;20051;-79
2024/03/12 00:32:43;;;;;;;0.60;0.50;;;;;;;;;;5072445;28;20027;-78
2024/03/12 00:35:12;;;;;;;0.55;0.50;;;;;;;;;;5075032;28;20021;-78
2024/03/12 00:37:39;;;;;;;0.98;0.77;;;;;;;;;;5079795;28;20040;-78
2024/03/12 00:40:11;;;;;;;1.17;0.63;;;;;;;;;;5090518;28;20005;-79
2024/03/12 00:42:37;;;;;;;0.82;0.60;;;;;;;;;;5082324;28;20021;-78
2024/03/12 00:45:05;;;;;;;4.68;1.13;;;;;;;;;;5073781;28;20150;-78
2024/03/12 00:47:33;;;;;;;1.02;0.93;;;;;;;;;;5067924;28;20027;-79
2024/03/12 00:50:00;;;;;;;1.00;0.63;;;;;;;;;;5070786;28;20021;-79
2024/03/12 00:52:26;;;;;;;0.85;0.70;;;;;;;;;;5050759;28;20020;-78
2024/03/12 00:54:52;;;;;;;1.10;0.93;;;;;;;;;;5071757;28;20044;-79
2024/03/12 00:57:20;;;;;;;1.50;0.73;;;;;;;;;;5078902;28;20054;-79
2024/03/12 00:59:47;;;;;;;0.85;0.60;;;;;;;;;;5066887;28;20044;-79
2024/03/12 01:02:13;;;;;;;1.80;0.70;;;;;;;;;;5079474;28;20069;-79
2024/03/12 01:04:39;;;;;;;1.30;0.75;;;;;;;;;;5077455;28;20134;-79
2024/03/12 01:07:10;;;;;;;1.08;0.73;;;;;;;;;;5079097;28;20467;-78
2024/03/12 01:09:39;;;;;;;1.52;0.75;;;;;;;;;;5074597;28;20483;-78
2024/03/12 01:12:11;;;;;;;0.93;0.80;;;;;;;;;;5083482;28;20475;-79
2024/03/12 01:14:38;;;;;;;0.95;0.70;;;;;;;;;;5066989;28;20386;-78
2024/03/12 01:17:07;;;;;;;0.55;0.55;;;;;;;;;;5081792;28;20052;-78
2024/03/12 01:19:35;;;;;;;1.25;0.93;;;;;;;;;;5055719;28;20092;-80
2024/03/12 01:22:01;;;;;;;0.98;0.77;;;;;;;;;;5072247;28;20091;-79
2024/03/12 01:24:28;;;;;;;1.75;0.60;;;;;;;;;;5075233;28;20025;-79
2024/03/12 01:26:55;;;;;;;1.48;0.73;;;;;;;;;;5088784;28;20047;-78
2024/03/12 01:29:22;;;;;;;0.60;0.60;;;;;;;;;;5081539;28;20270;-79
2024/03/12 01:31:50;;;;;;;0.63;0.50;;;;;;;;;;5084784;28;20035;-78
2024/03/12 01:34:18;;;;;;;1.33;0.77;;;;;;;;;;5073514;28;20080;-78
2024/03/12 01:36:47;;;;;;;1.17;0.70;;;;;;;;;;5099095;28;20013;-79
2024/03/12 01:39:16;;;;;;;0.85;0.57;;;;;;;;;;5094766;28;20032;-78
2024/03/12 01:41:42;;;;;;;0.50;0.50;;;;;;;;;;5082947;28;20078;-79
2024/03/12 01:44:09;;;;;;;0.43;0.38;;;;;;;;;;5082912;28;20032;-80
2024/03/12 01:46:36;;;;;;;1.27;0.95;;;;;;;;;;5077613;28;20041;-80
2024/03/12 01:49:05;;;;;;;0.60;0.50;;;;;;;;;;5080369;28;20039;-79
2024/03/12 01:51:32;;;;;;;0.77;0.30;;;;;;;;;;5063268;28;20020;-80
2024/03/12 01:53:58;;;;;;;0.50;0.50;;;;;;;;;;5063718;28;20471;-80
2024/03/12 01:56:24;;;;;;;0.40;0.40;;;;;;;;;;5052231;28;20491;-78
2024/03/12 01:58:53;;;;;;;0.82;0.50;;;;;;;;;;5081429;28;20028;-80
2024/03/12 02:01:20;;;;;;;1.00;0.55;;;;;;;;;;5073735;28;20051;-79
2024/03/12 02:03:48;;;;;;;0.30;0.30;;;;;;;;;;5063300;28;20052;-79
2024/03/12 02:06:14;;;;;;;0.50;0.50;;;;;;;;;;5080642;28;20032;-77
2024/03/12 02:08:40;;;;;;;1.10;0.60;;;;;;;;;;5081072;28;20066;-79
2024/03/12 02:11:06;;;;;;;0.60;0.60;;;;;;;;;;5080924;28;20031;-79
2024/03/12 02:13:32;;;;;;;0.60;0.60;;;;;;;;;;5080014;28;20013;-78
2024/03/12 02:15:59;;;;;;;0.77;0.60;;;;;;;;;;5079133;28;20033;-78
2024/03/12 02:18:25;;;;;;;1.08;0.77;;;;;;;;;;5089598;28;20005;-79
2024/03/12 02:20:51;;;;;;;0.85;0.80;;;;;;;;;;5085369;28;20039;-80
2024/03/12 02:23:17;;;;;;;1.75;0.90;;;;;;;;;;5095201;28;20020;-79
2024/03/12 02:25:43;;;;;;;0.70;0.70;;;;;;;;;;5094646;28;20028;-78
2024/03/12 02:28:09;;;;;;;0.68;0.57;;;;;;;;;;5096743;28;20024;-79
2024/03/12 02:30:35;;;;;;;1.63;0.80;;;;;;;;;;5096490;28;20042;-78
2024/03/12 02:33:03;;;;;;;1.77;0.95;;;;;;;;;;5095139;28;20036;-78
2024/03/12 02:35:29;;;;;;;1.00;0.95;;;;;;;;;;5080101;28;20154;-78
2024/03/12 02:37:55;;;;;;;1.13;0.90;;;;;;;;;;5070861;28;20162;-78
2024/03/12 02:40:21;;;;;;;0.60;0.60;;;;;;;;;;5061405;28;20024;-79
2024/03/12 02:42:47;;;;;;;1.52;1.42;;;;;;;;;;5064223;28;20047;-81
2024/03/12 02:45:20;;;;;;;0.57;0.57;;;;;;;;;;5060552;28;20113;-78
2024/03/12 02:47:47;;;;;;;0.85;0.50;;;;;;;;;;5078226;28;20017;-79
2024/03/12 02:50:13;;;;;;;1.95;0.70;;;;;;;;;;5058918;28;20033;-79
2024/03/12 02:52:41;;;;;;;0.68;0.50;;;;;;;;;;5082780;28;20025;-80
2024/03/12 02:55:07;;;;;;;1.17;0.90;;;;;;;;;;5078716;28;20016;-79
2024/03/12 02:57:34;;;;;;;1.33;0.70;;;;;;;;;;5077012;28;20479;-78
2024/03/12 03:00:00;;;;;;;0.65;0.50;;;;;;;;;;5078671;28;20511;-80
2024/03/12 03:02:28;;;;;;;0.90;0.70;;;;;;;;;;5082047;28;20025;-80
2024/03/12 03:04:54;;;;;;;1.70;1.27;;;;;;;;;;5082286;28;20046;-80
2024/03/12 03:07:20;;;;;;;1.33;0.93;;;;;;;;;;5058504;28;20120;-80
2024/03/12 03:09:46;;;;;;;1.58;1.02;;;;;;;;;;5080746;28;20359;-80
2024/03/12 03:12:12;;;;;;;1.90;1.20;;;;;;;;;;5055593;28;20015;-79
2024/03/12 03:14:38;;;;;;;3.00;1.08;;;;;;;;;;5066123;28;20048;-80
2024/03/12 03:17:07;;;;;;;1.13;0.98;;;;;;;;;;5097019;28;20024;-78
2024/03/12 03:19:33;;;;;;;1.15;0.98;;;;;;;;;;5084859;28;20049;-79
2024/03/12 03:21:59;;;;;;;2.42;1.20;;;;;;;;;;5063591;28;20047;-79
2024/03/12 03:24:25;;;;;;;1.02;0.75;;;;;;;;;;5055486;28;20024;-79
2024/03/12 03:26:51;;;;;;;0.80;0.80;;;;;;;;;;5078578;28;20119;-80
2024/03/12 03:29:21;;;;;;;1.75;1.63;;;;;;;;;;5074298;28;20494;-80
2024/03/12 03:31:48;;;;;;;3.88;1.60;;;;;;;;;;5060345;28;20016;-79
2024/03/12 03:34:17;;;;;;;2.45;1.10;;;;;;;;;;5071766;28;20017;-79
2024/03/12 03:36:43;;;;;;;1.20;1.08;;;;;;;;;;5078399;28;20219;-79
2024/03/12 03:39:09;;;;;;;2.53;1.35;;;;;;;;;;5078495;28;20024;-78
2024/03/12 03:41:35;;;;;;;1.30;1.20;;;;;;;;;;5079018;28;20020;-79
2024/03/12 03:44:02;;;;;;;4.45;1.50;;;;;;;;;;5066064;28;20024;-79
2024/03/12 03:46:29;;;;;;;2.00;1.48;;;;;;;;;;5080655;28;20095;-79
2024/03/12 03:48:55;;;;;;;1.63;1.33;;;;;;;;;;5072160;28;20443;-79
2024/03/12 03:51:21;;;;;;;1.40;1.20;;;;;;;;;;5076906;28;20349;-79
2024/03/12 03:53:47;;;;;;;2.40;1.05;;;;;;;;;;5080693;28;20023;-79
2024/03/12 03:56:15;;;;;;;1.30;1.20;;;;;;;;;;5069966;28;20024;-80
2024/03/12 03:58:43;;;;;;;2.65;1.30;;;;;;;;;;5071961;28;20077;-80
2024/03/12 04:01:09;;;;;;;1.63;1.52;;;;;;;;;;5073844;28;20021;-79
2024/03/12 04:03:36;;;;;;;1.42;1.27;;;;;;;;;;5058540;28;20028;-79
2024/03/12 04:06:03;;;;;;;1.98;1.20;;;;;;;;;;5059152;28;20066;-79
2024/03/12 04:08:30;;;;;;;1.30;1.20;;;;;;;;;;5080767;28;20052;-80
2024/03/12 04:10:56;;;;;;;1.02;0.93;;;;;;;;;;5058031;28;20048;-81
2024/03/12 04:13:23;;;;;;;1.65;1.35;;;;;;;;;;5070174;28;20048;-81
2024/03/12 04:15:49;;;;;;;2.63;1.52;;;;;;;;;;5072326;28;20031;-81
2024/03/12 04:18:18;;;;;;;2.00;1.08;;;;;;;;;;5081963;28;20107;-80
2024/03/12 04:20:45;;;;;;;2.60;1.15;;;;;;;;;;5068222;28;20005;-81
2024/03/12 04:23:11;;;;;;;1.95;1.15;;;;;;;;;;5074829;28;20021;-80
2024/03/12 04:25:40;;;;;;;1.60;1.50;;;;;;;;;;5049451;28;20025;-81
2024/03/12 04:28:09;;;;;;;2.38;1.63;;;;;;;;;;5067434;28;20101;-81
2024/03/12 04:30:38;;;;;;;2.08;1.40;;;;;;;;;;5073270;28;20475;-78
2024/03/12 04:33:06;;;;;;;4.13;1.50;;;;;;;;;;5048683;28;20035;-79
2024/03/12 04:35:32;;;;;;;1.50;1.40;;;;;;;;;;5048422;28;20040;-79
2024/03/12 04:37:59;;;;;;;2.95;1.40;;;;;;;;;;5077413;28;20033;-80
2024/03/12 04:40:26;;;;;;;1.88;1.70;;;;;;;;;;5059769;28;20024;-80
2024/03/12 04:42:53;;;;;;;1.60;1.17;;;;;;;;;;5076488;28;20081;-79
2024/03/12 04:45:22;;;;;;;1.83;1.45;;;;;;;;;;5075948;28;20017;-79
2024/03/12 04:47:49;;;;;;;1.55;1.20;;;;;;;;;;5069691;28;20028;-80
2024/03/12 04:50:16;;;;;;;2.45;1.42;;;;;;;;;;5067217;28;20053;-80
2024/03/12 04:52:42;;;;;;;2.15;1.40;;;;;;;;;;5069451;28;20049;-80
2024/03/12 04:55:08;;;;;;;2.25;1.25;;;;;;;;;;5049377;28;20026;-80
2024/03/12 04:57:35;;;;;;;1.60;1.30;;;;;;;;;;5077102;28;20080;-80
2024/03/12 05:00:03;;;;;;;1.73;1.38;;;;;;;;;;5070645;28;20060;-80
2024/03/12 05:02:29;;;;;;;1.65;1.55;;;;;;;;;;5053406;28;20032;-80
2024/03/12 05:04:55;;;;;;;2.20;1.50;;;;;;;;;;5077194;28;20036;-79
2024/03/12 05:07:22;;;;;;;2.22;1.45;;;;;;;;;;5069849;28;20040;-79
2024/03/12 05:09:48;;;;;;;2.70;1.67;;;;;;;;;;5071650;28;20120;-79
2024/03/12 05:12:14;;;;;;;2.38;1.50;;;;;;;;;;5056832;28;20021;-78
2024/03/12 05:14:40;;;;;;;1.90;1.50;;;;;;;;;;5070875;28;20479;-77
2024/03/12 05:17:06;;;;;;;1.80;1.52;;;;;;;;;;5068151;28;20032;-78
2024/03/12 05:19:32;;;;;;;1.40;1.30;;;;;;;;;;5062260;28;20027;-78
2024/03/12 05:21:58;;;;;;;2.88;1.88;;;;;;;;;;5093160;28;20033;-78
2024/03/12 05:24:25;;;;;;;2.90;2.10;;;;;;;;;;5050125;28;20017;-78
2024/03/12 05:26:54;;;;;;;2.35;1.30;;;;;;;;;;5074985;28;20021;-78
2024/03/12 05:29:26;;;;;;;2.03;1.70;;;;;;;;;;5074313;28;20036;-77
2024/03/12 05:31:52;;;;;;;1.95;1.83;;;;;;;;;;5091996;28;20052;-77
2024/03/12 05:34:27;;;;;;;2.15;1.90;;;;;;;;;;5087586;28;20020;-78
2024/03/12 05:37:03;;;;;;;4.68;2.30;;;;;;;;;;5080021;28;20093;-77
2024/03/12 05:39:50;;;;;;;6.38;2.17;;;;;;;;;;5087408;28;20021;-78
2024/03/12 05:50:30;;;;;;;1.63;1.52;;;;;;;;;;5066199;28;20069;-76
2024/03/12 05:52:57;;;;;;;2.40;2.10;;;;;;;;;;5066484;28;20016;-77
2024/03/12 05:55:23;;;;;;;3.05;1.52;;;;;;;;;;5054521;28;20390;-77
2024/03/12 05:57:49;;;;;;;2.08;1.80;;;;;;;;;;5055919;28;20074;-77
2024/03/12 06:00:15;;;;;;;2.75;1.63;;;;;;;;;;5075795;28;20040;-79
2024/03/12 06:02:41;;;;;;;1.75;1.60;;;;;;;;;;5077696;28;20490;-77
2024/03/12 06:05:08;;;;;;;1.35;1.25;;;;;;;;;;5058325;28;20059;-78
2024/03/12 06:07:35;;;;;;;2.03;1.65;;;;;;;;;;5076906;28;20021;-77
2024/03/12 06:10:01;;;;;;;2.13;1.75;;;;;;;;;;5075766;28;20107;-78
2024/03/12 06:12:27;;;;;;;2.03;1.67;;;;;;;;;;5075794;28;20021;-77
2024/03/12 06:14:53;;;;;;;3.03;2.60;;;;;;;;;;5076625;28;20021;-78
2024/03/12 06:17:19;;;;;;;3.05;2.75;;;;;;;;;;5079720;28;20016;-78
2024/03/12 06:19:46;;;;;;;3.28;2.47;;;;;;;;;;5076751;28;20027;-78
2024/03/12 06:22:12;;;;;;;8.15;3.67;;;;;;;;;;5077174;28;20467;-78
2024/03/12 06:24:39;;;;;;;4.57;3.00;;;;;;;;;;5077457;28;20113;-78
2024/03/12 06:27:05;;;;;;;3.70;2.65;;;;;;;;;;5058360;28;20024;-77
2024/03/12 06:29:31;;;;;;;3.13;2.58;;;;;;;;;;5076514;28;20020;-78
2024/03/12 06:31:57;;;;;;;2.90;2.70;;;;;;;;;;5076018;28;20028;-77
2024/03/12 06:34:27;;;;;;;2.72;2.15;;;;;;;;;;5069131;28;20024;-77
2024/03/12 06:36:57;;;;;;;2.30;2.10;;;;;;;;;;5077345;28;20020;-77
2024/03/12 06:39:24;;;;;;;3.25;2.60;;;;;;;;;;5076517;28;20111;-78
2024/03/12 06:41:51;;;;;;;5.22;2.72;;;;;;;;;;5076717;28;20105;-78
2024/03/12 06:44:19;;;;;;;2.88;2.22;;;;;;;;;;5079790;28;20035;-78
2024/03/12 06:46:45;;;;;;;3.95;2.60;;;;;;;;;;5079187;28;20039;-77
2024/03/12 06:49:12;;;;;;;4.80;2.20;;;;;;;;;;5077278;28;20043;-78
2024/03/12 06:51:38;;;;;;;4.00;2.25;;;;;;;;;;5077000;28;20016;-77
2024/03/12 06:54:04;;;;;;;5.65;2.60;;;;;;;;;;5078764;28;20094;-78
2024/03/12 06:56:31;;;;;;;2.17;1.98;;;;;;;;;;5078933;28;20434;-78
2024/03/12 06:58:58;;;;;;;3.60;2.08;;;;;;;;;;5076470;28;20437;-77
2024/03/12 07:01:30;;;;;;;2.40;2.10;;;;;;;;;;5065598;28;20027;-78
2024/03/12 07:03:57;;;;;;;3.50;2.05;;;;;;;;;;5077088;28;20032;-78
2024/03/12 07:06:24;;;;;;;2.33;2.10;;;;;;;;;;5075978;28;20271;-77
2024/03/12 07:08:50;;;;;;;3.80;2.22;;;;;;;;;;5075485;28;20036;-78
2024/03/12 07:11:19;;;;;;;2.33;2.13;;;;;;;;;;5085359;28;20047;-77
2024/03/12 07:13:48;;;;;;;2.80;2.35;;;;;;;;;;5092342;28;20020;-76
2024/03/12 07:16:15;;;;;;;4.60;2.40;;;;;;;;;;5093692;28;20048;-77
2024/03/12 07:18:41;;;;;;;2.60;2.08;;;;;;;;;;5094480;28;20016;-76
2024/03/12 07:21:07;;;;;;;2.30;2.10;;;;;;;;;;5074883;28;20032;-76
2024/03/12 07:23:35;;;;;;;4.88;2.50;;;;;;;;;;5094045;28;20036;-76
2024/03/12 07:26:02;;;;;;;2.15;1.95;;;;;;;;;;5093389;28;20029;-78
2024/03/12 07:28:28;;;;;;;2.33;1.60;;;;;;;;;;5096135;28;20023;-77
2024/03/12 07:30:54;;;;;;;2.65;1.50;;;;;;;;;;5090295;28;20036;-77
2024/03/12 07:33:21;;;;;;;2.47;1.85;;;;;;;;;;5091302;28;20035;-77
2024/03/12 07:35:47;;;;;;;3.08;2.05;;;;;;;;;;5071334;28;20036;-78
2024/03/12 07:38:13;;;;;;;3.47;2.10;;;;;;;;;;5060898;28;20032;-77
2024/03/12 07:43:20;;;;;;;3.40;2.08;;;;;;;;;;5031974;28;20050;-80
2024/03/12 07:45:49;;;;;;;1.95;1.08;;;;;;;;;;5019631;28;20022;-81
2024/03/12 07:48:22;;;;;;;6.00;2.28;;;;;;;;;;5017714;28;20026;-81
2024/03/12 07:50:48;;;;;;;2.00;1.70;;;;;;;;;;5018040;28;20041;-81
2024/03/12 07:53:14;;;;;;;3.00;1.67;;;;;;;;;;5019283;28;20088;-80
2024/03/12 07:55:43;;;;;;;3.33;1.83;;;;;;;;;;5016010;28;20026;-79
2024/03/12 07:58:10;;;;;;;2.72;1.45;;;;;;;;;;5016107;28;20034;-81
2024/03/12 08:00:37;;;;;;;2.72;1.08;;;;;;;;;;5015894;28;20034;-79
2024/03/12 08:03:03;;;;;;;6.00;1.45;;;;;;;;;;5019054;28;20040;-79
2024/03/12 08:05:29;;;;;;;4.78;1.20;;;;;;;;;;5017881;28;20036;-80
2024/03/12 08:07:55;;;;;;;3.85;1.58;;;;;;;;;;5018711;28;20021;-79
2024/03/12 08:10:21;;;;;;;2.47;1.45;;;;;;;;;;5018885;28;20508;-81
2024/03/12 08:12:47;;;;;;;3.47;1.73;;;;;;;;;;5021435;28;20022;-79
2024/03/12 08:15:13;;;;;;;5.13;1.58;;;;;;;;;;5027389;28;20064;-79
2024/03/12 08:17:40;;;;;;;2.15;1.33;;;;;;;;;;5022295;28;20021;-80
2024/03/12 08:20:10;;;;;;;2.88;1.42;;;;;;;;;;5020236;28;20028;-80
2024/03/12 08:22:37;;;;;;;2.70;1.60;;;;;;;;;;5020000;28;20392;-80
2024/03/12 08:25:04;;;;;;;2.17;1.15;;;;;;;;;;5019631;28;20042;-80
2024/03/12 08:27:30;;;;;;;4.05;1.45;;;;;;;;;;5019824;28;20087;-81
2024/03/12 08:29:57;;;;;;;2.50;1.52;;;;;;;;;;5020420;28;20104;-80
2024/03/12 08:32:23;;;;;;;5.57;2.95;;;;;;;;;;5017547;28;20026;-80
2024/03/12 08:34:51;;;;;;;5.60;2.83;;;;;;;;;;5017769;28;20026;-81
2024/03/12 08:37:17;;;;;;;7.43;3.78;;;;;;;;;;5018597;28;20018;-79
2024/03/12 08:39:43;;;;;;;10.13;4.55;;;;;;;;;;5017751;28;20037;-81
2024/03/12 08:42:10;;;;;;;14.63;7.30;;;;;;;;;;5016677;28;20034;-80
2024/03/12 08:44:37;;;;;;;6.43;3.10;;;;;;;;;;5018927;28;20072;-79
2024/03/12 08:47:03;;;;;;;2.72;2.10;;;;;;;;;;5017247;28;20064;-80
2024/03/12 08:49:29;;;;;;;3.42;1.88;;;;;;;;;;5018537;28;20053;-80
2024/03/12 08:51:56;;;;;;;1.48;1.20;;;;;;;;;;5017660;28;20022;-80
2024/03/12 08:54:22;;;;;;;2.05;1.25;;;;;;;;;;5017833;28;20030;-79
2024/03/12 08:56:48;;;;;;;2.20;1.00;;;;;;;;;;5019586;28;20025;-80
2024/03/12 08:59:15;;;;;;;0.95;0.88;;;;;;;;;;5019069;28;20372;-80
2024/03/12 09:01:43;;;;;;;2.78;1.48;;;;;;;;;;5019668;28;20026;-80
2024/03/12 09:04:09;;;;;;;1.00;0.90;;;;;;;;;;5018325;28;20068;-80
2024/03/12 09:06:36;;;;;;;1.08;0.60;;;;;;;;;;5017045;28;20030;-80
2024/03/12 09:09:02;;;;;;;4.38;1.10;;;;;;;;;;5018382;28;20038;-80
2024/03/12 09:11:28;;;;;;;1.42;0.98;;;;;;;;;;5033864;28;20345;-79
2024/03/12 09:13:54;;;;;;;2.47;1.50;;;;;;;;;;5019216;28;20088;-80
2024/03/12 09:16:22;;;;;;;1.88;0.90;;;;;;;;;;5018538;28;20075;-81
2024/03/12 09:18:49;;;;;;;1.92;1.27;;;;;;;;;;5022113;28;20026;-81
2024/03/12 09:21:15;;;;;;;1.13;0.90;;;;;;;;;;5022736;28;20033;-80
2024/03/12 09:23:44;;;;;;;0.95;0.95;;;;;;;;;;5022992;28;20472;-83
2024/03/12 09:26:13;;;;;;;4.15;1.15;;;;;;;;;;5024623;28;20053;-84
2024/03/12 09:28:41;;;;;;;1.33;0.75;;;;;;;;;;5023394;28;20145;-80
2024/03/12 09:31:10;;;;;;;1.80;0.90;;;;;;;;;;5024683;28;20023;-81
2024/03/12 09:33:36;;;;;;;1.20;0.88;;;;;;;;;;5024812;28;20042;-81
2024/03/12 09:36:06;;;;;;;3.47;0.95;;;;;;;;;;5025261;28;20721;-81
2024/03/12 09:38:33;;;;;;;0.98;0.70;;;;;;;;;;5026006;28;20104;-81
2024/03/12 09:41:00;;;;;;;0.93;0.75;;;;;;;;;;5023736;28;20393;-80
2024/03/12 09:43:29;;;;;;;1.75;0.80;;;;;;;;;;5025027;28;20060;-81
2024/03/12 09:45:56;;;;;;;3.22;1.10;;;;;;;;;;5028820;28;20022;-81
2024/03/12 09:48:22;;;;;;;5.38;0.98;;;;;;;;;;5027915;28;20014;-79
2024/03/12 09:50:55;;;;;;;1.40;0.73;;;;;;;;;;5028539;28;20033;-80
2024/03/12 09:53:23;;;;;;;1.80;1.08;;;;;;;;;;5026012;28;20453;-81
2024/03/12 09:55:50;;;;;;;3.85;2.60;;;;;;;;;;5025391;28;20022;-81
2024/03/12 09:58:19;;;;;;;5.32;3.88;;;;;;;;;;5025460;28;20054;-80
2024/03/12 10:00:46;;;;;;;4.63;3.35;;;;;;;;;;5021115;28;20025;-80
2024/03/12 10:03:18;;;;;;;4.65;2.55;;;;;;;;;;5021250;28;20448;-80
2024/03/12 10:05:44;;;;;;;4.55;2.75;;;;;;;;;;5022670;28;20018;-80
2024/03/12 10:08:14;;;;;;;1.90;1.70;;;;;;;;;;5021718;28;20056;-81
2024/03/12 10:10:44;;;;;;;3.50;1.33;;;;;;;;;;5015121;28;20030;-80
2024/03/12 10:13:20;;;;;;;2.38;1.13;;;;;;;;;;5021837;28;20037;-81
2024/03/12 10:15:58;;;;;;;1.70;1.27;;;;;;;;;;5023905;28;20022;-80
2024/03/12 10:18:29;;;;;;;1.83;0.80;;;;;;;;;;5023463;28;20030;-80
2024/03/12 10:20:56;;;;;;;1.63;1.00;;;;;;;;;;5022185;28;20119;-81
2024/03/12 10:23:26;;;;;;;0.95;0.70;;;;;;;;;;5029276;28;20022;-81
2024/03/12 10:25:53;;;;;;;1.15;0.73;;;;;;;;;;5035857;28;20037;-80
2024/03/12 10:28:26;;;;;;;0.80;0.80;;;;;;;;;;5036945;28;20010;-78
2024/03/12 10:30:53;;;;;;;2.45;1.10;;;;;;;;;;5036210;28;20102;-79
2024/03/12 10:33:21;;;;;;;2.10;1.02;;;;;;;;;;5036297;28;20018;-78
2024/03/12 10:35:47;;;;;;;0.77;0.60;;;;;;;;;;5037492;28;20028;-78
2024/03/12 10:38:24;;;;;;;1.95;0.85;;;;;;;;;;5031286;28;20456;-79
2024/03/12 10:40:51;;;;;;;1.92;0.90;;;;;;;;;;5021507;28;20026;-79
2024/03/12 10:43:23;;;;;;;1.50;1.08;;;;;;;;;;5022914;28;20030;-79
2024/03/12 10:45:49;;;;;;;5.27;1.20;;;;;;;;;;5023394;28;20022;-80
2024/03/12 10:48:15;;;;;;;1.08;0.70;;;;;;;;;;5019483;28;20079;-79
2024/03/12 10:50:43;;;;;;;2.67;0.90;;;;;;;;;;5024601;28;20045;-78
2024/03/12 10:53:11;;;;;;;1.33;1.00;;;;;;;;;;5033842;28;20132;-79
2024/03/12 10:55:38;;;;;;;2.63;1.58;;;;;;;;;;5036072;28;20006;-81
2024/03/12 10:58:08;;;;;;;1.55;1.40;;;;;;;;;;5029467;28;20022;-78
2024/03/12 11:00:39;;;;;;;1.88;1.42;;;;;;;;;;5017821;28;20467;-78
2024/03/12 11:03:05;;;;;;;2.85;1.40;;;;;;;;;;5021213;28;20464;-77
2024/03/12 11:05:32;;;;;;;4.47;1.40;;;;;;;;;;5021235;28;20038;-80
2024/03/12 11:07:59;;;;;;;4.00;1.65;;;;;;;;;;5020891;28;20025;-80
2024/03/12 11:10:30;;;;;;;1.58;1.33;;;;;;;;;;5018439;28;20376;-81
2024/03/12 11:13:00;;;;;;;1.40;1.10;;;;;;;;;;5021415;28;20018;-79
2024/03/12 11:15:26;;;;;;;3.60;1.50;;;;;;;;;;5022750;28;20018;-81
2024/03/12 11:17:53;;;;;;;2.75;1.38;;;;;;;;;;5020490;28;20030;-81
2024/03/12 11:20:22;;;;;;;1.25;1.10;;;;;;;;;;5019131;28;20034;-79
2024/03/12 11:22:54;;;;;;;2.58;1.30;;;;;;;;;;5020908;28;20510;-81
2024/03/12 11:25:27;;;;;;;2.67;1.25;;;;;;;;;;5020890;28;20022;-79
2024/03/12 11:28:13;;;;;;;1.25;1.05;;;;;;;;;;5021088;28;20340;-81
2024/03/12 11:30:44;;;;;;;3.45;1.13;;;;;;;;;;5018365;28;20095;-80
2024/03/12 11:33:30;;;;;;;1.30;1.08;;;;;;;;;;5021056;28;20026;-79
2024/03/12 11:35:57;;;;;;;1.30;1.05;;;;;;;;;;5021382;28;20109;-80
2024/03/12 11:38:32;;;;;;;3.13;1.27;;;;;;;;;;5021503;28;20030;-80
2024/03/12 11:41:03;;;;;;;2.00;1.45;;;;;;;;;;5019176;28;20034;-80
2024/03/12 11:43:40;;;;;;;1.92;0.95;;;;;;;;;;5019474;28;20029;-80
2024/03/12 11:46:09;;;;;;;2.47;1.05;;;;;;;;;;5019872;28;20469;-80
2024/03/12 11:48:37;;;;;;;1.45;1.10;;;;;;;;;;5014795;28;20026;-80
2024/03/12 11:51:09;;;;;;;1.38;1.05;;;;;;;;;;5020340;28;20018;-80
2024/03/12 11:53:35;;;;;;;0.75;0.75;;;;;;;;;;5022065;28;20025;-80
2024/03/12 11:56:10;;;;;;;3.35;0.95;;;;;;;;;;5030841;28;20030;-79
2024/03/12 11:58:51;;;;;;;2.47;1.20;;;;;;;;;;5025716;28;20014;-79
2024/03/12 12:01:18;;;;;;;2.22;1.38;;;;;;;;;;5032955;28;20076;-78
2024/03/12 12:03:49;;;;;;;1.25;0.80;;;;;;;;;;5031725;28;20052;-80
2024/03/12 12:06:18;;;;;;;2.15;1.45;;;;;;;;;;5030055;28;20025;-78
2024/03/12 12:08:44;;;;;;;2.15;0.98;;;;;;;;;;5035326;28;20010;-79
2024/03/12 12:11:11;;;;;;;0.93;0.85;;;;;;;;;;5034083;28;20030;-79
2024/03/12 12:13:41;;;;;;;1.20;1.10;;;;;;;;;;5022704;28;20065;-81
2024/03/12 12:16:07;;;;;;;1.00;0.80;;;;;;;;;;5019740;28;20162;-81
2024/03/12 12:18:38;;;;;;;0.90;0.70;;;;;;;;;;5011469;28;20048;-80
2024/03/12 12:21:14;;;;;;;0.70;0.70;;;;;;;;;;5019711;28;20084;-80
2024/03/12 12:23:44;;;;;;;2.13;0.70;;;;;;;;;;5011936;28;20048;-80
2024/03/12 12:26:12;;;;;;;0.77;0.47;;;;;;;;;;5019184;28;20113;-80
2024/03/12 12:28:38;;;;;;;2.08;0.60;;;;;;;;;;5019538;28;20030;-78
2024/03/12 12:31:05;;;;;;;3.47;0.70;;;;;;;;;;5020008;28;20025;-79
2024/03/12 12:33:33;;;;;;;0.63;0.63;;;;;;;;;;5018760;28;20026;-80
2024/03/12 12:36:09;;;;;;;0.95;0.80;;;;;;;;;;5018716;28;20026;-80
2024/03/12 12:38:39;;;;;;;0.77;0.73;;;;;;;;;;5025364;28;20026;-81
2024/03/12 12:41:08;;;;;;;2.13;0.75;;;;;;;;;;5024015;28;20037;-81
2024/03/12 12:43:34;;;;;;;0.60;0.60;;;;;;;;;;5011546;28;20018;-79
2024/03/12 12:46:05;;;;;;;1.38;0.68;;;;;;;;;;5020567;28;20357;-77
2024/03/12 12:48:31;;;;;;;0.82;0.60;;;;;;;;;;5020427;28;20053;-81
2024/03/12 12:50:57;;;;;;;3.00;0.65;;;;;;;;;;5018224;28;20026;-82
2024/03/12 12:53:24;;;;;;;0.55;0.30;;;;;;;;;;5018843;28;20038;-83
2024/03/12 12:55:57;;;;;;;1.00;0.68;;;;;;;;;;5019297;28;20021;-80
2024/03/12 12:58:27;;;;;;;0.32;0.30;;;;;;;;;;5016020;28;20030;-75
2024/03/12 13:01:01;;;;;;;0.68;0.60;;;;;;;;;;5013808;28;20030;-80
2024/03/12 13:03:27;;;;;;;1.65;0.70;;;;;;;;;;5016653;28;20479;-81
2024/03/12 13:06:10;;;;;;;0.80;0.77;;;;;;;;;;5016429;28;20111;-79
2024/03/12 13:08:39;;;;;;;2.38;2.17;;;;;;;;;;5021774;28;20436;-79
2024/03/12 13:11:05;;;;;;;2.33;1.45;;;;;;;;;;5025468;28;20018;-79
2024/03/12 13:13:35;;;;;;;0.60;0.60;;;;;;;;;;5023011;28;20085;-79
2024/03/12 13:16:13;;;;;;;0.90;0.70;;;;;;;;;;5025623;28;20092;-80
2024/03/12 13:18:49;;;;;;;3.90;0.73;;;;;;;;;;5025113;28;20029;-80
2024/03/12 13:21:23;;;;;;;0.70;0.60;;;;;;;;;;5022996;28;20033;-79
2024/03/12 13:23:49;;;;;;;1.17;0.73;;;;;;;;;;5024069;28;20045;-80
2024/03/12 13:26:17;;;;;;;0.63;0.63;;;;;;;;;;5026989;28;20045;-80
2024/03/12 13:28:47;;;;;;;1.83;0.57;;;;;;;;;;5024845;28;20072;-78
2024/03/12 13:31:15;;;;;;;2.72;0.63;;;;;;;;;;5023453;28;20100;-79
2024/03/12 13:33:41;;;;;;;2.92;0.57;;;;;;;;;;5025218;28;20018;-77
2024/03/12 13:36:09;;;;;;;0.63;0.50;;;;;;;;;;5026196;28;20398;-78
2024/03/12 13:38:36;;;;;;;0.52;0.50;;;;;;;;;;5026051;28;20033;-80
2024/03/12 13:41:03;;;;;;;0.50;0.38;;;;;;;;;;5026669;28;20125;-81
2024/03/12 13:43:29;;;;;;;0.50;0.50;;;;;;;;;;5033252;28;20037;-79
2024/03/12 13:45:58;;;;;;;1.17;0.60;;;;;;;;;;5032254;28;20077;-78
2024/03/12 13:48:28;;;;;;;1.30;1.10;;;;;;;;;;5029487;28;20056;-78
2024/03/12 13:50:57;;;;;;;2.75;1.25;;;;;;;;;;5026059;28;20049;-80
2024/03/12 13:53:27;;;;;;;2.33;2.13;;;;;;;;;;5028835;28;20026;-81
2024/03/12 13:55:56;;;;;;;2.05;1.95;;;;;;;;;;5028257;28;20022;-80
2024/03/12 13:58:24;;;;;;;4.72;2.60;;;;;;;;;;5028426;28;20026;-81
2024/03/12 14:00:51;;;;;;;2.45;1.88;;;;;;;;;;5030792;28;20017;-80
2024/03/12 14:03:20;;;;;;;1.60;1.50;;;;;;;;;;5030538;28;20058;-79
2024/03/12 14:05:48;;;;;;;2.08;1.30;;;;;;;;;;5029727;28;20033;-78
2024/03/12 14:08:14;;;;;;;3.05;1.00;;;;;;;;;;5036329;28;20130;-80
2024/03/12 14:10:44;;;;;;;0.70;0.70;;;;;;;;;;5012891;28;20037;-80
2024/03/12 14:13:10;;;;;;;0.60;0.60;;;;;;;;;;5031279;28;20026;-78
2024/03/12 14:15:40;;;;;;;0.50;0.50;;;;;;;;;;5027168;28;20026;-78
2024/03/12 14:18:06;;;;;;;1.33;0.63;;;;;;;;;;5028314;28;20050;-79
2024/03/12 14:20:33;;;;;;;0.75;0.70;;;;;;;;;;5025432;28;20071;-81
2024/03/12 14:22:59;;;;;;;1.05;0.80;;;;;;;;;;5031718;28;20030;-78
2024/03/12 14:25:25;;;;;;;1.92;0.85;;;;;;;;;;5030320;28;20028;-80
2024/03/12 14:27:51;;;;;;;0.88;0.82;;;;;;;;;;5025603;28;20029;-80
2024/03/12 14:30:22;;;;;;;1.13;1.00;;;;;;;;;;5028697;28;20237;-79
2024/03/12 14:32:49;;;;;;;1.50;1.40;;;;;;;;;;5031117;28;20064;-77
2024/03/12 14:35:15;;;;;;;1.70;1.42;;;;;;;;;;5033228;28;20034;-80
2024/03/12 14:37:42;;;;;;;1.70;1.13;;;;;;;;;;5032942;28;20053;-78
2024/03/12 14:40:11;;;;;;;2.42;1.10;;;;;;;;;;5031267;28;20034;-78
2024/03/12 14:42:41;;;;;;;2.17;1.75;;;;;;;;;;5023025;28;20070;-80
2024/03/12 14:45:08;;;;;;;2.50;1.73;;;;;;;;;;5023176;28;20030;-81
2024/03/12 14:47:38;;;;;;;1.85;1.70;;;;;;;;;;5024189;28;20026;-81
2024/03/12 14:50:04;;;;;;;2.97;1.83;;;;;;;;;;5027187;28;20030;-78
2024/03/12 14:52:31;;;;;;;4.72;1.95;;;;;;;;;;5031730;28;20034;-77
2024/03/12 14:54:57;;;;;;;3.58;2.05;;;;;;;;;;5033016;28;20116;-77
2024/03/12 14:57:24;;;;;;;2.55;2.28;;;;;;;;;;5030370;28;20029;-79